createdAt,value
2023-05-08T00:00:43.457Z,5.40
2023-05-08T00:03:11.065Z,5.55
2023-05-08T00:05:38.762Z,5.00
2023-05-08T00:08:07.787Z,5.37
2023-05-08T00:10:35.453Z,5.68
2023-05-08T00:13:03.021Z,5.25
2023-05-08T00:15:30.726Z,5.27
2023-05-08T00:18:00.006Z,5.60
2023-05-08T00:20:30.140Z,5.22
2023-05-08T00:22:58.043Z,5.28
2023-05-08T00:25:25.679Z,5.00
2023-05-08T00:27:53.413Z,5.97
2023-05-08T00:30:21.432Z,5.65
2023-05-08T00:32:49.190Z,5.47
2023-05-08T00:35:16.853Z,5.95
2023-05-08T00:37:44.528Z,6.03
2023-05-08T00:40:12.456Z,5.90
2023-05-08T00:42:40.289Z,6.43
2023-05-08T00:45:08.215Z,5.75
2023-05-08T00:47:35.873Z,5.18
2023-05-08T00:50:03.556Z,6.03
2023-05-08T00:52:31.796Z,6.20
2023-05-08T00:54:59.875Z,6.15
2023-05-08T00:57:27.564Z,6.50
2023-05-08T00:59:55.083Z,5.80
2023-05-08T01:02:22.708Z,6.05
2023-05-08T01:04:50.262Z,5.20
2023-05-08T01:07:19.137Z,5.80
2023-05-08T01:09:46.665Z,5.57
2023-05-08T01:12:37.282Z,5.38
2023-05-08T01:15:20.598Z,5.73
2023-05-08T01:18:13.774Z,5.75
2023-05-08T01:20:44.121Z,5.63
2023-05-08T01:23:16.884Z,6.40
2023-05-08T01:26:02.807Z,6.20
2023-05-08T01:28:49.000Z,4.85
2023-05-08T01:31:51.833Z,5.67
2023-05-08T01:34:22.027Z,5.93
2023-05-08T01:36:49.616Z,5.97
2023-05-08T01:39:21.334Z,6.20
2023-05-08T01:41:59.687Z,6.50
2023-05-08T01:44:29.618Z,6.25
2023-05-08T01:46:57.404Z,6.35
2023-05-08T01:49:26.231Z,5.87
2023-05-08T01:52:14.988Z,5.93
2023-05-08T01:54:44.449Z,5.60
2023-05-08T01:57:13.041Z,5.33
2023-05-08T01:59:40.549Z,5.25
2023-05-08T02:02:08.241Z,5.88
2023-05-08T02:04:35.818Z,5.05
2023-05-08T02:07:03.624Z,5.67
2023-05-08T02:09:31.156Z,6.05
2023-05-08T02:11:58.897Z,6.80
2023-05-08T02:14:27.169Z,6.40
2023-05-08T02:16:54.808Z,6.15
2023-05-08T02:19:22.900Z,6.72
2023-05-08T02:21:50.538Z,6.43
2023-05-08T02:24:18.072Z,6.63
2023-05-08T02:26:45.940Z,5.97
2023-05-08T02:29:13.501Z,6.47
2023-05-08T02:31:41.190Z,6.60
2023-05-08T02:34:08.756Z,6.03
2023-05-08T02:36:36.724Z,6.63
2023-05-08T02:39:04.685Z,6.27
2023-05-08T02:41:32.833Z,6.50
2023-05-08T02:44:00.526Z,6.47
2023-05-08T02:46:36.550Z,6.50
2023-05-08T02:49:14.104Z,6.32
2023-05-08T02:51:47.923Z,7.28
2023-05-08T02:54:17.089Z,6.38
2023-05-08T02:57:09.886Z,5.93
2023-05-08T02:59:39.518Z,5.65
2023-05-08T03:02:13.923Z,6.47
2023-05-08T03:04:42.966Z,5.97
2023-05-08T03:07:11.374Z,4.78
2023-05-08T03:09:46.411Z,6.35
2023-05-08T03:12:16.262Z,5.97
2023-05-08T03:14:46.602Z,6.30
2023-05-08T03:17:14.916Z,5.82
2023-05-08T03:19:42.453Z,6.05
2023-05-08T03:22:10.069Z,5.60
2023-05-08T03:24:37.601Z,5.82
2023-05-08T03:27:06.467Z,6.15
2023-05-08T03:29:34.238Z,5.60
2023-05-08T03:32:02.350Z,6.38
2023-05-08T03:34:29.968Z,5.82
2023-05-08T03:36:57.681Z,6.43
2023-05-08T03:39:26.949Z,4.75
2023-05-08T03:41:55.936Z,5.70
2023-05-08T03:44:23.559Z,4.07
2023-05-08T03:46:51.678Z,3.53
2023-05-08T03:49:19.353Z,5.03
2023-05-08T03:51:46.894Z,4.82
2023-05-08T03:54:14.508Z,5.70
2023-05-08T03:56:42.072Z,5.55
2023-05-08T03:59:18.147Z,4.00
2023-05-08T04:01:49.805Z,5.50
2023-05-08T04:04:18.063Z,4.15
2023-05-08T04:06:50.409Z,4.05
2023-05-08T04:09:25.014Z,5.65
2023-05-08T04:11:58.955Z,5.10
2023-05-08T04:14:27.528Z,5.38
2023-05-08T04:16:56.941Z,5.97
2023-05-08T04:19:25.908Z,3.73
2023-05-08T04:21:55.905Z,4.70
2023-05-08T04:24:23.702Z,5.10
2023-05-08T04:26:51.434Z,5.50
2023-05-08T04:29:18.956Z,4.65
2023-05-08T04:31:46.600Z,4.82
2023-05-08T04:34:14.659Z,4.13
2023-05-08T04:36:42.253Z,4.97
2023-05-08T04:39:09.832Z,4.53
2023-05-08T04:41:37.445Z,4.43
2023-05-08T04:44:05.446Z,4.53
2023-05-08T04:46:33.047Z,4.13
2023-05-08T04:49:00.693Z,4.57
2023-05-08T04:51:28.401Z,5.37
2023-05-08T04:53:56.535Z,4.90
2023-05-08T04:56:24.139Z,5.50
2023-05-08T04:58:51.867Z,4.65
2023-05-08T05:01:19.448Z,5.00
2023-05-08T05:03:47.094Z,5.97
2023-05-08T05:06:14.724Z,5.70
2023-05-08T05:08:42.402Z,5.43
2023-05-08T05:11:09.943Z,6.22
2023-05-08T05:13:37.587Z,4.20
2023-05-08T05:16:05.655Z,5.60
2023-05-08T05:18:33.282Z,3.83
2023-05-08T05:21:00.838Z,4.68
2023-05-08T05:23:29.852Z,5.57
2023-05-08T05:25:57.669Z,5.10
2023-05-08T05:28:26.227Z,6.25
2023-05-08T05:30:53.962Z,4.47
2023-05-08T05:33:21.591Z,4.57
2023-05-08T05:35:49.180Z,5.68
2023-05-08T05:38:16.932Z,5.45
2023-05-08T05:40:44.520Z,5.20
2023-05-08T05:43:13.222Z,5.72
2023-05-08T05:45:41.346Z,5.70
2023-05-08T05:48:09.080Z,5.57
2023-05-08T05:50:38.046Z,3.80
2023-05-08T05:53:07.995Z,4.82
2023-05-08T05:55:35.666Z,3.72
2023-05-08T05:58:03.470Z,4.03
2023-05-08T06:00:31.482Z,4.47
2023-05-08T06:02:59.314Z,4.80
2023-05-08T06:05:27.135Z,5.57
2023-05-08T06:07:55.241Z,4.07
2023-05-08T06:10:22.876Z,5.07
2023-05-08T06:12:50.498Z,5.22
2023-05-08T06:15:18.545Z,4.93
2023-05-08T06:17:46.094Z,5.35
2023-05-08T06:20:13.737Z,5.22
2023-05-08T06:22:42.009Z,6.23
2023-05-08T06:25:10.172Z,4.45
2023-05-08T06:27:37.971Z,5.53
2023-05-08T06:30:08.760Z,5.70
2023-05-08T06:32:36.417Z,6.30
2023-05-08T06:35:04.192Z,6.05
2023-05-08T06:37:31.876Z,5.55
2023-05-08T06:40:11.044Z,5.53
2023-05-08T06:42:40.092Z,4.75
2023-05-08T06:45:08.182Z,5.30
2023-05-08T06:47:36.009Z,5.93
2023-05-08T06:50:03.655Z,5.07
2023-05-08T06:52:31.298Z,5.32
2023-05-08T06:54:58.941Z,5.47
2023-05-08T06:57:27.330Z,5.88
2023-05-08T06:59:54.933Z,5.38
2023-05-08T07:02:22.454Z,5.45
2023-05-08T07:04:50.084Z,5.90
2023-05-08T07:07:17.818Z,4.47
2023-05-08T07:09:45.632Z,5.32
2023-05-08T07:12:13.200Z,5.77
2023-05-08T07:14:40.801Z,5.82
2023-05-08T07:17:08.417Z,5.85
2023-05-08T07:19:38.977Z,5.80
2023-05-08T07:22:07.798Z,5.28
2023-05-08T07:24:35.444Z,5.68
2023-05-08T07:27:03.213Z,6.18
2023-05-08T07:29:30.885Z,6.80
2023-05-08T07:31:58.541Z,5.78
2023-05-08T07:34:26.049Z,6.20
2023-05-08T07:36:53.642Z,6.40
2023-05-08T07:39:21.222Z,6.65
2023-05-08T07:41:49.899Z,6.40
2023-05-08T07:44:17.678Z,6.60
2023-05-08T07:46:45.532Z,6.63
2023-05-08T07:49:13.083Z,7.22
2023-05-08T07:51:41.439Z,6.47
2023-05-08T07:54:09.029Z,6.37
2023-05-08T07:56:36.692Z,7.28
2023-05-08T07:59:06.560Z,6.75
2023-05-08T08:01:34.508Z,6.43
2023-05-08T08:04:02.250Z,6.63
2023-05-08T08:06:30.594Z,7.28
2023-05-08T08:08:58.272Z,6.70
2023-05-08T08:11:25.941Z,6.25
2023-05-08T08:13:53.534Z,6.72
2023-05-08T08:16:21.099Z,7.13
2023-05-08T08:18:48.806Z,7.27
2023-05-08T08:21:17.535Z,7.40
2023-05-08T08:23:45.088Z,6.88
2023-05-08T08:26:12.712Z,6.93
2023-05-08T08:28:40.268Z,6.63
2023-05-08T08:31:07.895Z,7.43
2023-05-08T08:33:35.475Z,6.90
2023-05-08T08:36:03.820Z,7.28
2023-05-08T08:38:31.409Z,7.20
2023-05-08T08:40:59.676Z,6.70
2023-05-08T08:43:28.930Z,6.97
2023-05-08T08:45:56.811Z,7.45
2023-05-08T08:48:24.498Z,7.10
2023-05-08T08:50:52.252Z,6.93
2023-05-08T08:53:25.426Z,7.13
2023-05-08T08:55:53.918Z,7.35
2023-05-08T08:58:21.765Z,7.57
2023-05-08T09:00:49.590Z,6.95
2023-05-08T09:03:17.424Z,7.20
2023-05-08T09:05:45.585Z,6.65
2023-05-08T09:08:13.258Z,7.17
2023-05-08T09:10:41.197Z,7.38
2023-05-08T09:13:08.904Z,7.30
2023-05-08T09:15:36.538Z,7.13
2023-05-08T09:18:06.796Z,7.50
2023-05-08T09:20:34.443Z,7.43
2023-05-08T09:23:05.091Z,7.97
2023-05-08T09:25:42.187Z,6.88
2023-05-08T09:28:19.498Z,7.35
2023-05-08T09:30:51.555Z,7.07
2023-05-08T09:33:19.244Z,6.97
2023-05-08T09:35:48.630Z,7.35
2023-05-08T09:38:35.376Z,7.82
2023-05-08T09:41:09.386Z,8.33
2023-05-08T09:43:37.048Z,7.88
2023-05-08T09:46:22.927Z,7.85
2023-05-08T09:48:51.092Z,8.10
2023-05-08T09:51:18.882Z,7.65
2023-05-08T09:53:46.570Z,8.07
2023-05-08T09:56:14.293Z,8.18
2023-05-08T09:58:42.427Z,8.60
2023-05-08T10:01:11.412Z,8.13
2023-05-08T10:03:49.007Z,8.27
2023-05-08T10:06:16.846Z,8.90
2023-05-08T10:08:44.555Z,8.07
2023-05-08T10:11:18.353Z,7.82
2023-05-08T10:13:46.310Z,8.48
2023-05-08T10:16:17.330Z,8.45
2023-05-08T10:18:49.043Z,8.10
2023-05-08T10:21:16.932Z,8.57
2023-05-08T10:23:45.030Z,8.97
2023-05-08T10:26:17.636Z,9.15
2023-05-08T10:28:48.201Z,8.13
2023-05-08T10:31:16.249Z,8.90
2023-05-08T10:33:44.058Z,8.15
2023-05-08T10:36:13.350Z,8.68
2023-05-08T10:38:41.121Z,8.57
2023-05-08T10:41:08.688Z,8.68
2023-05-08T10:43:36.253Z,8.55
2023-05-08T10:46:06.554Z,8.90
2023-05-08T10:48:37.636Z,8.67
2023-05-08T10:51:11.497Z,8.43
2023-05-08T10:53:46.692Z,8.60
2023-05-08T10:56:14.255Z,10.00
2023-05-08T10:58:41.993Z,9.55
2023-05-08T11:01:09.635Z,8.88
2023-05-08T11:03:42.003Z,8.07
2023-05-08T11:06:09.833Z,9.82
2023-05-08T11:08:54.754Z,10.32
2023-05-08T11:11:29.554Z,9.43
2023-05-08T11:13:57.280Z,9.13
2023-05-08T11:16:43.503Z,9.43
2023-05-08T11:19:17.601Z,8.80
2023-05-08T11:22:05.401Z,9.40
2023-05-08T11:24:38.979Z,9.50
2023-05-08T11:27:06.718Z,10.55
2023-05-08T11:29:34.226Z,10.77
2023-05-08T11:32:01.938Z,10.48
2023-05-08T11:34:45.170Z,10.52
2023-05-08T11:37:13.233Z,10.05
2023-05-08T11:39:40.822Z,9.87
2023-05-08T11:42:29.498Z,9.77
2023-05-08T11:45:10.007Z,9.77
2023-05-08T11:47:38.834Z,9.60
2023-05-08T11:50:06.991Z,10.82
2023-05-08T11:52:38.354Z,10.27
2023-05-08T11:55:09.506Z,10.25
2023-05-08T11:57:37.137Z,9.75
2023-05-08T12:00:07.913Z,10.98
2023-05-08T12:02:38.391Z,10.50
2023-05-08T12:05:06.808Z,10.93
2023-05-08T12:07:35.723Z,11.30
2023-05-08T12:10:03.745Z,11.07
2023-05-08T12:12:38.004Z,11.90
2023-05-08T12:15:09.219Z,11.07
2023-05-08T12:17:38.126Z,10.38
2023-05-08T12:20:15.210Z,11.68
2023-05-08T12:22:43.422Z,11.20
2023-05-08T12:25:12.312Z,11.90
2023-05-08T12:27:41.381Z,12.98
2023-05-08T12:30:09.746Z,11.43
2023-05-08T12:32:37.542Z,12.43
2023-05-08T12:35:05.501Z,11.52
2023-05-08T12:37:33.143Z,12.43
2023-05-08T12:40:00.953Z,13.15
2023-05-08T12:42:44.671Z,13.35
2023-05-08T12:45:25.506Z,12.10
2023-05-08T12:47:53.612Z,12.68
2023-05-08T12:50:21.905Z,12.50
2023-05-08T12:52:51.802Z,11.93
2023-05-08T12:55:38.141Z,13.40
2023-05-08T12:58:14.281Z,12.45
2023-05-08T13:00:43.693Z,12.15
2023-05-08T13:03:12.028Z,12.37
2023-05-08T13:05:43.156Z,12.60
2023-05-08T13:08:11.056Z,12.30
2023-05-08T13:10:47.427Z,13.20
2023-05-08T13:13:15.544Z,13.45
2023-05-08T13:15:43.367Z,12.57
2023-05-08T13:18:11.318Z,12.40
2023-05-08T13:20:38.979Z,12.87
2023-05-08T13:23:06.582Z,13.50
2023-05-08T13:25:34.254Z,12.60
2023-05-08T13:28:01.957Z,13.93
2023-05-08T13:30:29.642Z,12.60
2023-05-08T13:32:57.350Z,13.27
2023-05-08T13:35:25.162Z,12.45
2023-05-08T13:37:52.804Z,13.00
2023-05-08T13:40:20.554Z,12.40
2023-05-08T13:42:48.261Z,12.63
2023-05-08T13:45:16.038Z,12.80
2023-05-08T13:47:43.925Z,12.65
2023-05-08T13:50:11.735Z,12.57
2023-05-08T13:52:39.597Z,14.07
2023-05-08T13:55:07.753Z,13.13
2023-05-08T13:57:36.343Z,12.93
2023-05-08T14:00:04.744Z,13.60
2023-05-08T14:02:32.443Z,12.93
2023-05-08T14:05:00.042Z,13.18
2023-05-08T14:07:28.289Z,13.23
2023-05-08T14:09:55.917Z,12.73
2023-05-08T14:12:23.568Z,13.48
2023-05-08T14:14:53.576Z,12.35
2023-05-08T14:17:21.210Z,12.23
2023-05-08T14:19:48.788Z,12.20
2023-05-08T14:22:16.340Z,12.32
2023-05-08T14:24:44.433Z,13.77
2023-05-08T14:27:12.170Z,11.95
2023-05-08T14:29:39.848Z,12.90
2023-05-08T14:32:09.413Z,13.20
2023-05-08T14:34:37.100Z,13.63
2023-05-08T14:37:04.794Z,13.35
2023-05-08T14:39:32.404Z,11.70
2023-05-08T14:42:21.322Z,13.30
2023-05-08T14:44:52.568Z,12.25
2023-05-08T14:47:20.249Z,12.93
2023-05-08T14:49:47.799Z,13.40
2023-05-08T14:52:15.910Z,12.15
2023-05-08T14:54:43.695Z,12.95
2023-05-08T14:57:11.555Z,13.00
2023-05-08T14:59:46.150Z,12.30
2023-05-08T15:02:26.678Z,13.02
2023-05-08T15:04:54.251Z,12.70
2023-05-08T15:07:21.826Z,12.93
2023-05-08T15:09:49.425Z,11.60
2023-05-08T15:12:17.028Z,12.75
2023-05-08T15:14:44.605Z,11.20
2023-05-08T15:17:12.208Z,12.15
2023-05-08T15:19:39.853Z,11.80
2023-05-08T15:22:07.352Z,11.70
2023-05-08T15:24:34.931Z,11.10
2023-05-08T15:27:02.564Z,11.88
2023-05-08T15:29:30.161Z,13.27
2023-05-08T15:31:57.720Z,12.67
2023-05-08T15:34:29.012Z,13.10
2023-05-08T15:36:56.975Z,12.50
2023-05-08T15:39:24.547Z,13.70
2023-05-08T15:41:52.135Z,12.77
2023-05-08T15:44:19.846Z,12.98
2023-05-08T15:46:50.501Z,12.10
2023-05-08T15:49:18.057Z,12.37
2023-05-08T15:51:45.586Z,13.13
2023-05-08T15:54:13.138Z,11.98
2023-05-08T15:56:40.696Z,11.87
2023-05-08T15:59:08.379Z,13.18
2023-05-08T16:01:36.100Z,13.40
2023-05-08T16:04:03.688Z,12.93
2023-05-08T16:06:31.228Z,12.65
2023-05-08T16:09:00.037Z,13.05
2023-05-08T16:11:37.012Z,14.00
2023-05-08T16:14:04.714Z,14.60
2023-05-08T16:16:32.263Z,13.73
2023-05-08T16:18:59.916Z,13.45
2023-05-08T16:21:27.773Z,13.13
2023-05-08T16:23:56.121Z,13.38
2023-05-08T16:26:23.884Z,13.05
2023-05-08T16:28:51.654Z,14.80
2023-05-08T16:31:19.256Z,17.10
2023-05-08T16:33:46.811Z,18.33
2023-05-08T16:36:14.380Z,17.60
2023-05-08T16:38:41.912Z,18.10
2023-05-08T16:41:10.285Z,18.48
2023-05-08T16:43:37.818Z,18.02
2023-05-08T16:46:08.356Z,18.30
2023-05-08T16:48:36.247Z,18.42
2023-05-08T16:51:03.898Z,18.52
2023-05-08T16:53:32.638Z,19.30
2023-05-08T16:56:00.413Z,18.55
2023-05-08T16:58:28.144Z,19.02
2023-05-08T17:00:55.750Z,20.13
2023-05-08T17:03:23.451Z,19.20
2023-05-08T17:05:51.411Z,7.75
2023-05-08T17:08:19.079Z,4.65
2023-05-08T17:10:46.700Z,7.23
2023-05-08T17:13:15.027Z,10.07
2023-05-08T17:15:42.601Z,11.25
2023-05-08T17:18:10.438Z,13.48
2023-05-08T17:20:41.001Z,12.05
2023-05-08T17:23:12.847Z,11.80
2023-05-08T17:25:40.517Z,11.95
2023-05-08T17:28:08.270Z,12.73
2023-05-08T17:30:35.974Z,13.23
2023-05-08T17:33:03.863Z,13.65
2023-05-08T17:35:31.605Z,13.07
2023-05-08T17:37:59.256Z,13.35
2023-05-08T17:40:28.877Z,13.32
2023-05-08T17:42:56.572Z,14.25
2023-05-08T17:45:24.191Z,14.35
2023-05-08T17:47:51.866Z,14.18
2023-05-08T17:50:19.560Z,14.48
2023-05-08T17:52:47.214Z,13.80
2023-05-08T17:55:14.820Z,14.55
2023-05-08T17:57:42.425Z,14.25
2023-05-08T18:00:11.586Z,13.53
2023-05-08T18:02:39.412Z,14.07
2023-05-08T18:05:07.647Z,13.93
2023-05-08T18:07:38.071Z,13.15
2023-05-08T18:10:08.311Z,12.27
2023-05-08T18:12:36.008Z,13.00
2023-05-08T18:15:07.666Z,13.07
2023-05-08T18:17:35.450Z,12.40
2023-05-08T18:20:04.534Z,12.32
2023-05-08T18:22:33.263Z,13.18
2023-05-08T18:25:01.395Z,11.90
2023-05-08T18:27:29.364Z,11.60
2023-05-08T18:29:59.362Z,11.45
2023-05-08T18:32:26.983Z,11.43
2023-05-08T18:34:54.730Z,10.77
2023-05-08T18:37:23.184Z,11.02
2023-05-08T18:39:51.036Z,11.88
2023-05-08T18:42:25.070Z,11.47
2023-05-08T18:44:52.802Z,10.77
2023-05-08T18:47:23.558Z,10.95
2023-05-08T18:49:52.578Z,9.87
2023-05-08T18:52:20.197Z,9.48
2023-05-08T18:54:47.724Z,8.15
2023-05-08T18:57:15.645Z,8.75
2023-05-08T18:59:43.288Z,12.70
2023-05-08T19:02:10.951Z,11.45
2023-05-08T19:04:38.550Z,10.57
2023-05-08T19:07:06.148Z,9.80
2023-05-08T19:09:34.172Z,9.93
2023-05-08T19:12:04.247Z,10.00
2023-05-08T19:14:31.965Z,9.53
2023-05-08T19:16:59.553Z,10.45
2023-05-08T19:19:27.747Z,8.93
2023-05-08T19:21:55.331Z,11.00
2023-05-08T19:24:25.068Z,10.10
2023-05-08T19:26:55.145Z,11.52
2023-05-08T19:29:22.797Z,12.02
2023-05-08T19:31:50.576Z,11.57
2023-05-08T19:34:18.231Z,12.65
2023-05-08T19:36:45.874Z,12.20
2023-05-08T19:39:17.744Z,14.23
2023-05-08T19:41:45.501Z,15.82
2023-05-08T19:44:13.185Z,15.00
2023-05-08T19:46:41.184Z,15.20
2023-05-08T19:49:08.884Z,14.40
2023-05-08T19:51:36.462Z,14.80
2023-05-08T19:54:04.140Z,15.40
2023-05-08T19:56:31.952Z,17.90
2023-05-08T19:58:59.625Z,18.08
2023-05-08T20:01:27.138Z,21.95
2023-05-08T20:03:54.891Z,21.10
2023-05-08T20:06:23.058Z,20.38
2023-05-08T20:08:50.792Z,21.58
2023-05-08T20:11:22.087Z,20.40
2023-05-08T20:13:49.709Z,20.23
2023-05-08T20:16:17.280Z,18.52
2023-05-08T20:18:46.329Z,17.52
2023-05-08T20:21:13.947Z,14.90
2023-05-08T20:23:41.663Z,13.35
2023-05-08T20:26:09.308Z,12.75
2023-05-08T20:28:37.172Z,11.23
2023-05-08T20:31:04.854Z,12.60
2023-05-08T20:33:32.468Z,14.75
2023-05-08T20:36:00.033Z,13.95
2023-05-08T20:38:31.565Z,14.23
2023-05-08T20:41:01.073Z,13.65
2023-05-08T20:43:28.955Z,14.15
2023-05-08T20:45:56.595Z,13.50
2023-05-08T20:48:24.340Z,17.27
2023-05-08T20:50:52.082Z,19.52
2023-05-08T20:53:19.695Z,20.57
2023-05-08T20:55:47.234Z,14.30
2023-05-08T20:58:14.852Z,13.10
2023-05-08T21:00:42.470Z,13.40
2023-05-08T21:03:10.141Z,13.05
2023-05-08T21:05:37.688Z,13.30
2023-05-08T21:08:06.339Z,15.45
2023-05-08T21:10:34.156Z,15.57
2023-05-08T21:13:01.834Z,18.27
2023-05-08T21:15:29.538Z,14.60
2023-05-08T21:17:57.483Z,12.90
2023-05-08T21:20:25.291Z,14.00
2023-05-08T21:22:52.840Z,13.18
2023-05-08T21:25:21.656Z,14.60
2023-05-08T21:27:49.323Z,14.20
2023-05-08T21:30:16.986Z,16.80
2023-05-08T21:32:44.854Z,18.98
2023-05-08T21:35:13.229Z,19.67
2023-05-08T21:37:41.030Z,19.60
2023-05-08T21:40:09.804Z,19.70
2023-05-08T21:42:37.391Z,19.17
2023-05-08T21:45:05.074Z,19.35
2023-05-08T21:47:32.877Z,21.15
2023-05-08T21:50:00.519Z,22.27
2023-05-08T21:52:28.116Z,22.58
2023-05-08T21:54:56.068Z,23.60
2023-05-08T21:57:23.814Z,21.92
2023-05-08T21:59:51.536Z,22.67
2023-05-08T22:02:20.138Z,20.58
2023-05-08T22:04:47.795Z,19.98
2023-05-08T22:07:15.593Z,20.53
2023-05-08T22:09:43.625Z,20.55
2023-05-08T22:12:13.778Z,19.55
2023-05-08T22:14:41.376Z,21.13
2023-05-08T22:17:09.011Z,21.33
2023-05-08T22:19:36.603Z,20.35
2023-05-08T22:22:04.159Z,21.58
2023-05-08T22:24:31.729Z,19.57
2023-05-08T22:26:59.380Z,21.95
2023-05-08T22:29:26.979Z,20.15
2023-05-08T22:31:54.649Z,19.20
2023-05-08T22:34:22.412Z,18.88
2023-05-08T22:36:50.248Z,18.70
2023-05-08T22:39:17.864Z,20.27
2023-05-08T22:41:45.519Z,19.13
2023-05-08T22:44:13.126Z,20.08
2023-05-08T22:46:41.672Z,20.38
2023-05-08T22:49:09.625Z,21.20
2023-05-08T22:51:37.265Z,22.33
2023-05-08T22:54:04.925Z,20.52
2023-05-08T22:56:32.573Z,20.67
2023-05-08T22:59:00.380Z,20.38
2023-05-08T23:01:28.030Z,20.90
2023-05-08T23:03:56.688Z,20.45
2023-05-08T23:06:24.355Z,21.10
2023-05-08T23:08:52.077Z,18.15
2023-05-08T23:11:19.640Z,19.48
2023-05-08T23:13:47.230Z,19.70
2023-05-08T23:16:14.830Z,20.45
2023-05-08T23:18:42.492Z,18.95
2023-05-08T23:21:10.126Z,19.27
2023-05-08T23:23:37.767Z,19.55
2023-05-08T23:26:05.918Z,19.08
2023-05-08T23:28:33.812Z,18.43
2023-05-08T23:31:01.868Z,19.35
2023-05-08T23:33:29.433Z,20.15
2023-05-08T23:35:57.304Z,19.52
2023-05-08T23:38:25.094Z,20.67
2023-05-08T23:40:52.683Z,21.63
2023-05-08T23:43:20.295Z,19.50
2023-05-08T23:45:47.887Z,20.07
2023-05-08T23:48:15.680Z,20.67
2023-05-08T23:50:43.280Z,21.95
2023-05-08T23:53:10.845Z,18.90
2023-05-08T23:55:38.391Z,19.90
2023-05-08T23:58:06.173Z,20.17
